createdAt,value
2019-02-24T00:01:50.721Z,4.10
2019-02-24T00:05:52.672Z,3.90
2019-02-24T00:09:55.196Z,3.35
2019-02-24T00:13:58.239Z,5.87
2019-02-24T00:18:00.843Z,3.73
2019-02-24T00:22:03.084Z,3.83
2019-02-24T00:26:05.241Z,4.90
2019-02-24T00:30:08.876Z,5.00
2019-02-24T00:34:11.054Z,3.90
2019-02-24T00:38:12.971Z,3.60
2019-02-24T00:42:15.387Z,4.60
2019-02-24T00:46:18.105Z,4.10
2019-02-24T00:50:20.445Z,4.72
2019-02-24T00:54:22.353Z,4.42
2019-02-24T00:58:24.384Z,4.17
2019-02-24T01:02:26.303Z,4.67
2019-02-24T01:06:28.221Z,3.90
2019-02-24T01:10:30.143Z,4.17
2019-02-24T01:14:32.064Z,4.67
2019-02-24T01:18:33.991Z,4.63
2019-02-24T01:22:35.913Z,5.00
2019-02-24T01:26:37.884Z,4.30
2019-02-24T01:30:40.780Z,5.45
2019-02-24T01:34:42.702Z,4.75
2019-02-24T01:38:44.625Z,4.47
2019-02-24T01:42:46.544Z,4.27
2019-02-24T01:46:48.449Z,4.27
2019-02-24T01:50:50.365Z,5.10
2019-02-24T01:54:52.288Z,3.83
2019-02-24T01:58:54.210Z,4.13
2019-02-24T02:02:56.126Z,3.93
2019-02-24T02:06:58.034Z,6.23
2019-02-24T02:10:59.956Z,4.10
2019-02-24T02:15:01.873Z,4.73
2019-02-24T02:19:04.775Z,4.70
2019-02-24T02:23:06.701Z,4.00
2019-02-24T02:27:08.609Z,4.90
2019-02-24T02:31:10.532Z,5.00
2019-02-24T02:35:13.425Z,3.87
2019-02-24T02:39:15.384Z,3.97
2019-02-24T02:43:17.763Z,4.73
2019-02-24T02:47:19.666Z,3.65
2019-02-24T02:51:21.628Z,4.83
2019-02-24T02:55:23.539Z,4.10
2019-02-24T02:59:25.501Z,5.50
2019-02-24T03:03:27.514Z,4.30
2019-02-24T03:07:31.054Z,3.97
2019-02-24T03:11:32.975Z,4.40
2019-02-24T03:15:35.005Z,5.03
2019-02-24T03:19:36.931Z,5.10
2019-02-24T03:23:38.853Z,3.87
2019-02-24T03:27:40.768Z,4.10
2019-02-24T03:31:42.681Z,4.67
2019-02-24T03:35:44.586Z,4.10
2019-02-24T03:39:46.501Z,5.17
2019-02-24T03:43:48.418Z,4.27
2019-02-24T03:47:50.342Z,4.40
2019-02-24T03:51:52.261Z,4.37
2019-02-24T03:55:54.550Z,4.10
2019-02-24T03:59:56.472Z,4.43
2019-02-24T04:03:58.466Z,3.70
2019-02-24T04:08:00.374Z,4.47
2019-02-24T04:12:02.292Z,4.70
2019-02-24T04:16:07.770Z,4.83
2019-02-24T04:20:09.688Z,3.80
2019-02-24T04:24:11.617Z,3.90
2019-02-24T04:28:13.531Z,4.00
2019-02-24T04:32:15.457Z,4.57
2019-02-24T04:36:17.384Z,3.47
2019-02-24T04:40:19.300Z,3.67
2019-02-24T04:44:21.216Z,3.63
2019-02-24T04:48:23.129Z,3.92
2019-02-24T04:52:25.184Z,5.33
2019-02-24T04:56:27.085Z,5.13
2019-02-24T05:00:29.025Z,6.53
2019-02-24T05:04:31.040Z,4.10
2019-02-24T05:08:32.934Z,3.85
2019-02-24T05:12:34.859Z,3.90
2019-02-24T05:16:52.707Z,4.10
2019-02-24T05:20:54.639Z,4.83
2019-02-24T05:24:56.568Z,5.90
2019-02-24T05:28:58.469Z,4.23
2019-02-24T05:33:00.388Z,3.73
2019-02-24T05:37:02.292Z,3.80
2019-02-24T05:41:04.243Z,4.40
2019-02-24T05:45:07.087Z,3.90
2019-02-24T05:49:08.971Z,3.90
2019-02-24T05:53:10.996Z,4.67
2019-02-24T05:57:12.910Z,4.00
2019-02-24T06:01:15.061Z,5.75
2019-02-24T06:05:16.987Z,3.90
2019-02-24T06:09:18.986Z,5.33
2019-02-24T06:13:21.061Z,4.90
2019-02-24T06:17:23.160Z,4.40
2019-02-24T06:21:25.103Z,6.00
2019-02-24T06:25:27.047Z,4.58
2019-02-24T06:29:29.223Z,3.73
2019-02-24T06:33:31.169Z,5.42
2019-02-24T06:37:33.090Z,3.57
2019-02-24T06:41:35.032Z,4.92
2019-02-24T06:45:36.950Z,3.90
2019-02-24T06:49:38.856Z,4.50
2019-02-24T06:53:40.778Z,3.70
2019-02-24T06:57:42.693Z,5.47
2019-02-24T07:01:44.620Z,3.63
2019-02-24T07:05:46.528Z,4.97
2019-02-24T07:09:48.471Z,4.53
2019-02-24T07:13:50.397Z,9.27
2019-02-24T07:17:52.320Z,6.23
2019-02-24T07:21:54.244Z,8.80
2019-02-24T07:25:56.158Z,6.80
2019-02-24T07:29:59.059Z,7.23
2019-02-24T07:34:01.364Z,7.57
2019-02-24T07:38:03.340Z,6.93
2019-02-24T07:42:05.357Z,8.83
2019-02-24T07:46:07.308Z,9.67
2019-02-24T07:50:10.251Z,9.07
2019-02-24T07:54:12.172Z,7.78
2019-02-24T07:58:15.123Z,6.46
2019-02-24T08:02:17.214Z,6.90
2019-02-24T08:06:19.123Z,6.25
2019-02-24T08:10:21.056Z,6.23
2019-02-24T08:14:22.993Z,6.73
2019-02-24T08:18:25.020Z,7.90
2019-02-24T08:22:26.955Z,8.63
2019-02-24T08:26:28.866Z,8.10
2019-02-24T08:30:30.831Z,7.05
2019-02-24T08:34:32.754Z,4.90
2019-02-24T08:38:34.690Z,5.77
2019-02-24T08:42:36.637Z,7.57
2019-02-24T08:46:38.540Z,7.10
2019-02-24T08:50:40.463Z,8.57
2019-02-24T08:54:42.396Z,7.80
2019-02-24T08:58:44.319Z,8.20
2019-02-24T09:02:46.258Z,7.27
2019-02-24T09:06:48.156Z,6.33
2019-02-24T09:10:50.090Z,6.27
2019-02-24T09:14:52.003Z,8.37
2019-02-24T09:18:53.935Z,8.47
2019-02-24T09:22:55.830Z,6.87
2019-02-24T09:26:57.772Z,8.53
2019-02-24T09:31:01.024Z,10.27
2019-02-24T09:35:03.218Z,9.60
2019-02-24T09:39:05.981Z,8.37
2019-02-24T09:43:07.984Z,8.93
2019-02-24T09:47:09.876Z,7.67
2019-02-24T09:51:11.788Z,8.93
2019-02-24T09:55:13.698Z,8.43
2019-02-24T09:59:15.640Z,6.53
2019-02-24T10:03:17.552Z,6.43
2019-02-24T10:07:19.438Z,7.15
2019-02-24T10:11:21.351Z,7.62
2019-02-24T10:15:23.262Z,7.93
2019-02-24T10:19:25.182Z,8.38
2019-02-24T10:23:27.257Z,7.45
2019-02-24T10:27:29.208Z,8.65
2019-02-24T10:31:31.114Z,7.70
2019-02-24T10:35:33.094Z,8.18
2019-02-24T10:39:35.015Z,8.83
2019-02-24T10:43:36.911Z,8.70
2019-02-24T10:47:38.863Z,7.10
2019-02-24T10:51:40.755Z,9.20
2019-02-24T10:55:42.670Z,6.73
2019-02-24T10:59:44.621Z,8.67
2019-02-24T11:03:46.519Z,6.47
2019-02-24T11:07:48.432Z,7.37
2019-02-24T11:11:50.337Z,7.30
2019-02-24T11:15:52.325Z,8.13
2019-02-24T11:19:54.311Z,7.27
2019-02-24T11:23:56.223Z,7.10
2019-02-24T11:27:58.258Z,8.63
2019-02-24T11:32:00.158Z,8.03
2019-02-24T11:36:02.099Z,8.80
2019-02-24T11:40:05.795Z,8.27
2019-02-24T11:44:07.713Z,8.77
2019-02-24T11:48:09.633Z,7.37
2019-02-24T11:52:11.525Z,7.87
2019-02-24T11:56:13.428Z,6.70
2019-02-24T22:54:29.874Z,3.52
2019-02-24T22:58:31.790Z,3.40
2019-02-24T23:02:34.079Z,4.30
2019-02-24T23:06:36.000Z,3.57
2019-02-24T23:10:38.879Z,2.92
2019-02-24T23:14:40.807Z,2.60
2019-02-24T23:18:42.739Z,3.10
2019-02-24T23:22:44.664Z,3.70
2019-02-24T23:26:46.625Z,3.60
2019-02-24T23:30:48.528Z,3.40
2019-02-24T23:34:51.422Z,2.50
2019-02-24T23:38:53.349Z,2.80
2019-02-24T23:42:56.340Z,2.37
2019-02-24T23:46:58.253Z,2.93
2019-02-24T23:51:00.171Z,2.03
2019-02-24T23:55:05.925Z,2.70
2019-02-24T23:59:08.691Z,2.40
